Time;durP1;ratioP1;P1;durP2;ratioP2;P2;SDS_P1;SDS_P2;PMS_P1;PMS_P2;Temp;Humidity;BMP_temperature;BMP_pressure;BME280_temperature;BME280_humidity;BME280_pressure;Samples;Min_cycle;Max_cycle;Signal;HPM_P1;HPM_P2
2022/05/22 00:00:57;;;;;;;1.05;0.50;;;12.40;75.10;;;;;;5016291;28;20058;-76
2022/05/22 00:03:23;;;;;;;1.23;0.60;;;12.40;75.20;;;;;;5000052;28;20049;-76
2022/05/22 00:05:49;;;;;;;0.60;0.50;;;12.40;75.30;;;;;;5016360;28;20042;-76
2022/05/22 00:08:15;;;;;;;0.57;0.50;;;12.40;75.50;;;;;;5016123;28;20050;-76
2022/05/22 00:10:40;;;;;;;0.50;0.38;;;12.30;76.10;;;;;;4999757;28;20378;-76
2022/05/22 00:13:06;;;;;;;0.85;0.40;;;12.30;75.60;;;;;;4998622;28;20046;-76
2022/05/22 00:15:32;;;;;;;0.52;0.40;;;12.30;75.60;;;;;;4983005;28;20034;-76
2022/05/22 00:17:58;;;;;;;0.40;0.40;;;12.30;75.60;;;;;;4981189;28;20058;-76
2022/05/22 00:20:24;;;;;;;0.68;0.30;;;12.20;75.60;;;;;;5015582;28;20041;-76
2022/05/22 00:22:50;;;;;;;0.93;0.50;;;12.20;75.70;;;;;;5015457;28;20049;-76
2022/05/22 00:25:21;;;;;;;0.57;0.50;;;12.20;75.80;;;;;;4982237;28;20046;-76
2022/05/22 00:27:47;;;;;;;0.30;0.30;;;12.20;75.90;;;;;;5015795;28;20042;-76
2022/05/22 00:30:14;;;;;;;1.02;0.55;;;12.10;75.90;;;;;;5016126;28;20041;-76
2022/05/22 00:32:39;;;;;;;0.40;0.40;;;12.10;76.00;;;;;;4999141;28;20042;-76
2022/05/22 00:35:06;;;;;;;1.65;0.60;;;12.10;76.00;;;;;;5015673;28;20062;-76
2022/05/22 00:37:32;;;;;;;0.60;0.40;;;12.10;76.10;;;;;;5015492;28;20041;-76
2022/05/22 00:39:57;;;;;;;0.40;0.40;;;12.10;76.10;;;;;;5015695;28;20466;-76
2022/05/22 00:42:24;;;;;;;0.47;0.40;;;12.00;76.10;;;;;;5016046;28;20046;-76
2022/05/22 00:44:50;;;;;;;0.43;0.40;;;12.10;76.30;;;;;;5015990;28;20096;-76
2022/05/22 00:47:16;;;;;;;0.80;0.50;;;12.00;76.30;;;;;;4983664;28;20062;-76
2022/05/22 00:49:43;;;;;;;0.55;0.35;;;11.90;76.30;;;;;;4999717;28;20041;-76
2022/05/22 00:52:15;;;;;;;0.50;0.30;;;11.90;76.40;;;;;;5015826;28;20082;-76
2022/05/22 00:54:56;;;;;;;0.47;0.40;;;11.90;76.50;;;;;;4999126;28;20118;-76
2022/05/22 00:57:30;;;;;;;0.50;0.40;;;11.90;76.50;;;;;;5016006;28;20039;-76
2022/05/22 01:00:00;;;;;;;1.45;0.40;;;11.90;76.50;;;;;;4999910;28;20054;-76
2022/05/22 01:02:27;;;;;;;0.80;0.40;;;11.90;76.60;;;;;;5016307;28;20058;-76
2022/05/22 01:04:53;;;;;;;0.68;0.40;;;11.80;76.60;;;;;;5000320;28;20053;-76
2022/05/22 01:07:19;;;;;;;0.75;0.47;;;11.80;76.70;;;;;;4999951;28;20083;-76
2022/05/22 01:09:46;;;;;;;0.40;0.40;;;11.80;76.70;;;;;;5000005;28;20054;-76
2022/05/22 01:12:22;;;;;;;0.90;0.40;;;11.80;76.80;;;;;;4999972;28;20031;-76
2022/05/22 01:14:51;;;;;;;0.57;0.45;;;11.70;76.80;;;;;;5016389;28;20046;-76
2022/05/22 01:17:17;;;;;;;0.45;0.32;;;11.70;76.80;;;;;;5016455;28;20046;-76
2022/05/22 01:19:56;;;;;;;1.65;0.60;;;11.70;76.80;;;;;;4999352;28;20042;-76
2022/05/22 01:22:22;;;;;;;0.77;0.40;;;11.60;76.80;;;;;;4983288;28;20039;-76
2022/05/22 01:24:47;;;;;;;0.88;0.57;;;11.70;76.90;;;;;;5016143;28;20049;-76
2022/05/22 01:27:16;;;;;;;0.38;0.38;;;11.60;77.60;;;;;;5013351;28;20045;-76
2022/05/22 01:29:43;;;;;;;1.27;0.80;;;11.60;77.10;;;;;;4996444;28;20030;-75
2022/05/22 01:32:08;;;;;;;1.02;0.47;;;11.60;77.20;;;;;;5014465;28;20034;-76
2022/05/22 01:34:34;;;;;;;0.82;0.45;;;11.60;77.20;;;;;;4997738;28;20042;-76
2022/05/22 01:37:00;;;;;;;0.73;0.40;;;11.60;77.30;;;;;;4981873;28;20049;-76
2022/05/22 01:39:26;;;;;;;0.40;0.40;;;11.50;77.30;;;;;;4997653;28;20129;-77
2022/05/22 01:41:52;;;;;;;0.38;0.38;;;11.50;77.30;;;;;;5015123;28;20027;-76
2022/05/22 01:44:18;;;;;;;0.43;0.40;;;11.40;77.30;;;;;;4997981;28;20042;-76
2022/05/22 01:46:43;;;;;;;0.50;0.50;;;11.60;77.50;;;;;;5014834;28;20090;-76
2022/05/22 01:49:09;;;;;;;0.45;0.45;;;11.40;77.40;;;;;;5014910;28;20041;-76
2022/05/22 01:51:38;;;;;;;0.30;0.30;;;11.40;77.40;;;;;;4982143;28;20050;-75
2022/05/22 01:54:05;;;;;;;1.48;0.50;;;11.40;77.50;;;;;;4998387;28;20039;-76
2022/05/22 01:56:32;;;;;;;1.10;0.50;;;11.30;78.20;;;;;;5014477;28;20069;-76
2022/05/22 01:58:58;;;;;;;0.40;0.40;;;11.30;77.70;;;;;;4982360;28;20065;-76
2022/05/22 02:01:25;;;;;;;0.47;0.47;;;11.30;77.70;;;;;;4996415;28;20034;-76
2022/05/22 02:03:50;;;;;;;1.00;0.50;;;11.30;77.70;;;;;;5008532;28;20042;-76
2022/05/22 02:06:16;;;;;;;0.43;0.43;;;11.20;77.70;;;;;;4991608;28;20142;-76
2022/05/22 02:08:42;;;;;;;1.17;0.45;;;11.30;77.70;;;;;;4992933;28;20049;-76
2022/05/22 02:11:08;;;;;;;1.55;0.40;;;11.20;77.70;;;;;;5009132;28;20563;-76
2022/05/22 02:13:37;;;;;;;0.55;0.40;;;11.20;77.70;;;;;;5008810;28;20049;-76
2022/05/22 02:16:03;;;;;;;0.65;0.60;;;11.20;77.80;;;;;;5009152;28;20037;-76
2022/05/22 02:18:28;;;;;;;0.70;0.50;;;11.10;77.80;;;;;;4993036;28;20483;-76
2022/05/22 02:20:55;;;;;;;1.13;0.60;;;11.10;77.90;;;;;;4994653;28;20026;-76
2022/05/22 02:23:22;;;;;;;0.40;0.40;;;11.10;78.00;;;;;;5011643;28;20045;-76
2022/05/22 02:25:51;;;;;;;0.82;0.40;;;11.00;78.00;;;;;;4998230;28;20038;-76
2022/05/22 02:28:18;;;;;;;0.50;0.50;;;11.10;78.10;;;;;;4999720;28;20026;-76
2022/05/22 02:30:49;;;;;;;0.85;0.60;;;11.00;78.10;;;;;;5014825;28;20085;-76
2022/05/22 02:33:15;;;;;;;0.45;0.40;;;11.00;78.10;;;;;;5015146;28;20018;-76
2022/05/22 02:35:41;;;;;;;0.60;0.35;;;11.00;78.10;;;;;;5016197;28;20050;-76
2022/05/22 02:38:07;;;;;;;0.32;0.32;;;10.90;78.20;;;;;;5015558;28;20052;-76
2022/05/22 02:40:34;;;;;;;0.65;0.50;;;11.00;78.20;;;;;;5015843;28;20026;-76
2022/05/22 02:43:00;;;;;;;0.60;0.50;;;10.90;78.20;;;;;;4994705;28;20043;-76
2022/05/22 02:45:29;;;;;;;1.27;0.50;;;10.90;78.20;;;;;;4995494;28;20068;-76
2022/05/22 02:47:55;;;;;;;0.40;0.40;;;10.90;78.20;;;;;;5012723;28;20034;-76
2022/05/22 02:50:23;;;;;;;0.40;0.40;;;10.90;78.20;;;;;;5012433;28;20061;-76
2022/05/22 02:52:50;;;;;;;0.30;0.30;;;10.80;78.30;;;;;;5011819;28;20077;-76
2022/05/22 02:55:17;;;;;;;0.63;0.45;;;10.80;78.40;;;;;;5010714;28;20051;-75
2022/05/22 02:57:43;;;;;;;0.50;0.50;;;10.80;78.40;;;;;;5011374;28;20050;-76
2022/05/22 03:00:15;;;;;;;0.70;0.60;;;10.90;78.50;;;;;;5011762;28;20038;-76
2022/05/22 03:02:40;;;;;;;0.28;0.28;;;10.70;78.40;;;;;;5011931;28;20106;-76
2022/05/22 03:05:07;;;;;;;0.40;0.40;;;10.80;78.50;;;;;;4995252;28;20043;-76
2022/05/22 03:07:36;;;;;;;0.70;0.45;;;10.70;78.50;;;;;;4995691;28;20043;-76
2022/05/22 03:10:05;;;;;;;0.93;0.50;;;10.70;78.60;;;;;;4998720;28;20037;-76
2022/05/22 03:12:31;;;;;;;0.45;0.40;;;10.70;78.60;;;;;;5014542;28;20042;-76
2022/05/22 03:14:58;;;;;;;0.30;0.30;;;10.70;78.60;;;;;;5014581;28;20066;-76
2022/05/22 03:17:25;;;;;;;0.30;0.30;;;10.70;79.30;;;;;;5014293;28;21121;-76
2022/05/22 03:19:51;;;;;;;0.40;0.40;;;10.70;78.70;;;;;;5015365;28;20046;-76
2022/05/22 03:22:17;;;;;;;0.30;0.30;;;10.70;78.70;;;;;;4998315;28;20053;-76
2022/05/22 03:24:44;;;;;;;0.68;0.43;;;10.70;78.70;;;;;;5014829;28;20039;-76
2022/05/22 03:27:13;;;;;;;0.40;0.40;;;10.70;78.80;;;;;;5013720;28;20077;-76
2022/05/22 03:29:40;;;;;;;0.40;0.40;;;10.60;78.80;;;;;;5014694;28;20033;-76
2022/05/22 03:32:07;;;;;;;0.38;0.38;;;10.60;78.80;;;;;;5014086;28;20066;-76
2022/05/22 03:34:33;;;;;;;0.55;0.30;;;10.60;78.80;;;;;;5013519;28;20053;-76
2022/05/22 03:36:59;;;;;;;0.32;0.32;;;10.60;78.80;;;;;;5014455;28;20139;-76
2022/05/22 03:39:26;;;;;;;0.40;0.40;;;10.60;78.90;;;;;;5014144;28;20077;-76
2022/05/22 03:41:51;;;;;;;0.63;0.50;;;10.60;78.90;;;;;;5013824;28;20061;-76
2022/05/22 03:44:17;;;;;;;0.20;0.20;;;10.60;78.90;;;;;;4997239;28;20041;-76
2022/05/22 03:46:44;;;;;;;0.30;0.30;;;10.60;78.90;;;;;;5013890;28;20050;-76
2022/05/22 03:49:10;;;;;;;0.32;0.32;;;10.60;78.80;;;;;;5013595;28;20034;-76
2022/05/22 03:51:36;;;;;;;0.30;0.30;;;10.60;78.90;;;;;;4995799;28;20145;-76
2022/05/22 03:54:02;;;;;;;0.20;0.20;;;10.50;78.80;;;;;;4996257;28;20134;-76
2022/05/22 03:56:28;;;;;;;0.80;0.40;;;10.60;78.90;;;;;;5013159;28;20138;-76
2022/05/22 03:58:55;;;;;;;0.55;0.55;;;10.60;78.90;;;;;;5126061;23;20021;-76
2022/05/22 04:01:20;;;;;;;1.13;0.50;;;10.60;78.90;;;;;;5017542;28;20122;-76
2022/05/22 04:03:50;;;;;;;0.30;0.30;;;10.60;78.90;;;;;;5017997;28;20042;-75
2022/05/22 04:06:15;;;;;;;1.42;0.65;;;10.60;78.80;;;;;;5017308;28;20073;-76
2022/05/22 04:08:41;;;;;;;0.45;0.45;;;10.60;78.90;;;;;;5017489;28;20047;-77
2022/05/22 04:11:27;;;;;;;0.43;0.40;;;10.60;78.90;;;;;;5015548;28;20049;-76
2022/05/22 04:13:53;;;;;;;0.35;0.35;;;10.60;79.00;;;;;;4982419;28;20049;-77
2022/05/22 04:16:19;;;;;;;0.57;0.40;;;10.60;78.90;;;;;;5016538;28;20069;-76
2022/05/22 04:18:48;;;;;;;0.38;0.38;;;10.60;78.90;;;;;;4997165;28;20047;-76
2022/05/22 04:21:14;;;;;;;0.45;0.45;;;10.60;78.90;;;;;;4966862;28;20020;-76
2022/05/22 04:26:30;;;;;;;0.73;0.50;;;10.70;78.90;;;;;;5017596;28;20042;-76
2022/05/22 04:29:03;;;;;;;0.47;0.45;;;10.70;78.90;;;;;;5017228;28;20061;-76
2022/05/22 04:31:29;;;;;;;0.60;0.50;;;10.80;78.90;;;;;;5017206;28;20050;-75
2022/05/22 04:33:57;;;;;;;0.75;0.47;;;10.80;78.80;;;;;;5017978;28;20078;-76
2022/05/22 04:36:23;;;;;;;0.80;0.60;;;10.80;78.70;;;;;;4959141;29;20048;-76
2022/05/22 04:38:48;;;;;;;1.40;0.52;;;10.80;78.60;;;;;;4958683;28;20067;-76
2022/05/22 04:41:17;;;;;;;0.40;0.40;;;10.90;78.70;;;;;;4906460;29;20048;-77
2022/05/22 04:43:43;;;;;;;0.38;0.30;;;10.90;78.60;;;;;;4881099;29;20513;-77
2022/05/22 04:46:09;;;;;;;0.47;0.40;;;10.90;78.70;;;;;;4912790;29;20123;-77
2022/05/22 04:48:35;;;;;;;1.40;0.40;;;11.00;78.70;;;;;;4915108;29;20495;-77
2022/05/22 04:51:01;;;;;;;0.30;0.30;;;10.90;78.60;;;;;;4915078;29;20052;-77
2022/05/22 04:53:28;;;;;;;0.40;0.40;;;11.00;78.60;;;;;;4915334;29;20117;-77
2022/05/22 04:55:54;;;;;;;0.73;0.70;;;11.00;78.50;;;;;;4915095;29;20123;-77
2022/05/22 04:58:20;;;;;;;0.55;0.50;;;11.20;78.50;;;;;;4914651;29;20171;-77
2022/05/22 05:00:47;;;;;;;0.47;0.40;;;11.20;78.40;;;;;;4915003;29;20601;-77
2022/05/22 05:03:13;;;;;;;0.32;0.32;;;11.30;78.40;;;;;;4914873;29;20048;-77
2022/05/22 05:05:39;;;;;;;0.47;0.40;;;11.30;78.30;;;;;;4914959;29;20059;-77
2022/05/22 05:08:05;;;;;;;0.60;0.50;;;11.40;78.20;;;;;;4929974;29;20047;-77
2022/05/22 05:10:30;;;;;;;0.65;0.50;;;11.50;78.20;;;;;;4932556;29;20167;-77
2022/05/22 05:12:56;;;;;;;1.08;0.50;;;11.50;78.20;;;;;;4979572;28;20120;-77
2022/05/22 05:15:24;;;;;;;0.80;0.80;;;11.50;78.10;;;;;;4993044;28;20034;-77
2022/05/22 05:17:50;;;;;;;0.70;0.60;;;11.60;78.10;;;;;;4993548;28;20031;-77
2022/05/22 05:20:18;;;;;;;0.40;0.40;;;11.70;78.00;;;;;;4993196;28;20472;-77
2022/05/22 05:22:45;;;;;;;0.80;0.50;;;11.80;77.90;;;;;;4993166;28;20061;-77
2022/05/22 05:25:13;;;;;;;0.82;0.65;;;11.90;77.90;;;;;;4967829;28;20038;-77
2022/05/22 05:27:39;;;;;;;0.70;0.70;;;12.00;77.90;;;;;;4967533;28;20097;-77
2022/05/22 05:30:05;;;;;;;1.13;0.75;;;12.10;77.80;;;;;;4946173;28;20058;-77
2022/05/22 05:32:31;;;;;;;1.27;0.90;;;12.20;77.70;;;;;;4991935;28;20050;-77
2022/05/22 05:35:00;;;;;;;1.65;0.90;;;12.20;77.60;;;;;;4975122;28;20043;-76
2022/05/22 05:37:26;;;;;;;0.57;0.57;;;12.40;77.50;;;;;;4959222;28;20519;-77
2022/05/22 05:39:53;;;;;;;1.85;1.00;;;12.40;77.40;;;;;;4992752;28;20121;-77
2022/05/22 05:42:19;;;;;;;1.35;1.05;;;12.50;77.40;;;;;;4993290;28;20046;-77
2022/05/22 05:44:45;;;;;;;1.25;0.85;;;12.50;77.30;;;;;;4992778;28;20042;-76
2022/05/22 05:47:11;;;;;;;1.15;0.80;;;12.60;77.30;;;;;;4975607;28;20043;-76
2022/05/22 05:49:38;;;;;;;1.05;0.88;;;12.60;77.30;;;;;;4975124;28;20484;-76
2022/05/22 05:52:04;;;;;;;1.10;0.80;;;12.60;77.30;;;;;;4992440;28;20042;-77
2022/05/22 05:54:30;;;;;;;1.10;0.80;;;12.70;77.40;;;;;;4992769;28;20098;-77
2022/05/22 05:56:56;;;;;;;1.45;0.60;;;12.70;77.40;;;;;;4992613;28;20054;-77
2022/05/22 05:59:22;;;;;;;1.52;0.93;;;12.70;77.40;;;;;;4992764;28;20507;-78
2022/05/22 06:01:48;;;;;;;1.90;0.80;;;12.80;77.30;;;;;;4993199;28;20040;-78
2022/05/22 06:04:13;;;;;;;1.00;0.90;;;12.90;77.30;;;;;;4992545;28;20053;-77
2022/05/22 06:06:39;;;;;;;1.05;0.63;;;12.90;77.30;;;;;;4975234;28;20042;-76
2022/05/22 06:09:05;;;;;;;1.23;0.80;;;13.00;77.30;;;;;;4950085;28;20032;-76
2022/05/22 06:11:36;;;;;;;1.10;0.70;;;13.00;77.30;;;;;;4985464;28;20103;-76
2022/05/22 06:14:02;;;;;;;0.77;0.60;;;13.10;77.90;;;;;;4998199;28;20080;-77
2022/05/22 06:16:27;;;;;;;1.05;0.60;;;13.10;77.20;;;;;;5015235;28;20114;-76
2022/05/22 06:18:53;;;;;;;0.90;0.50;;;13.20;77.20;;;;;;5015673;28;20050;-76
2022/05/22 06:21:24;;;;;;;0.60;0.50;;;13.30;77.20;;;;;;5184982;23;20033;-75
2022/05/22 06:23:53;;;;;;;0.60;0.60;;;13.40;77.20;;;;;;4972990;28;20050;-77
2022/05/22 06:26:22;;;;;;;0.60;0.47;;;13.40;77.00;;;;;;4994196;28;20047;-76
2022/05/22 06:28:48;;;;;;;0.55;0.40;;;13.50;77.00;;;;;;4960684;28;20058;-76
2022/05/22 06:31:14;;;;;;;0.57;0.50;;;13.50;76.80;;;;;;4991571;28;20516;-76
2022/05/22 06:33:43;;;;;;;0.52;0.40;;;13.60;76.70;;;;;;4991775;28;20049;-76
2022/05/22 06:36:12;;;;;;;0.75;0.50;;;13.80;76.70;;;;;;4992711;28;20047;-76
2022/05/22 06:41:19;;;;;;;0.73;0.60;;;14.10;76.30;;;;;;4993328;28;20098;-76
2022/05/22 06:43:49;;;;;;;0.73;0.60;;;14.20;76.00;;;;;;4991889;28;20539;-76
2022/05/22 06:46:16;;;;;;;0.57;0.50;;;14.40;75.80;;;;;;4943124;28;20059;-77
2022/05/22 06:48:41;;;;;;;0.95;0.47;;;14.60;75.60;;;;;;4976421;28;20037;-77
2022/05/22 06:51:07;;;;;;;0.45;0.40;;;14.70;75.30;;;;;;4946415;28;20038;-75
2022/05/22 06:53:33;;;;;;;0.45;0.43;;;14.90;75.10;;;;;;4992015;28;20669;-75
2022/05/22 06:55:59;;;;;;;0.68;0.43;;;15.10;74.90;;;;;;4988715;28;20043;-75
2022/05/22 06:58:25;;;;;;;0.45;0.40;;;15.30;74.60;;;;;;4987112;28;20066;-76
2022/05/22 07:00:52;;;;;;;0.45;0.35;;;15.40;74.40;;;;;;4977353;28;20055;-76
2022/05/22 07:03:18;;;;;;;1.17;0.70;;;15.50;74.80;;;;;;4955819;28;20037;-75
2022/05/22 07:05:43;;;;;;;0.45;0.45;;;15.70;74.00;;;;;;4991994;28;20066;-76
2022/05/22 07:08:09;;;;;;;0.43;0.43;;;15.90;73.70;;;;;;4992153;28;20050;-76
2022/05/22 07:13:21;;;;;;;0.57;0.40;;;16.30;73.30;;;;;;4993299;28;20090;-76
2022/05/22 07:16:04;;;;;;;0.77;0.40;;;16.50;73.10;;;;;;4995382;28;20050;-77
2022/05/22 07:18:30;;;;;;;0.50;0.50;;;16.70;72.90;;;;;;4999503;28;20054;-76
2022/05/22 07:20:56;;;;;;;0.47;0.40;;;16.90;72.80;;;;;;4995501;28;20043;-76
2022/05/22 07:23:22;;;;;;;0.47;0.40;;;17.10;72.60;;;;;;4981729;28;20042;-76
2022/05/22 07:25:47;;;;;;;0.60;0.60;;;17.20;72.30;;;;;;4998529;28;20035;-77
2022/05/22 07:28:14;;;;;;;0.63;0.50;;;17.40;72.10;;;;;;4982414;28;20039;-76
2022/05/22 07:30:39;;;;;;;0.30;0.30;;;17.50;72.00;;;;;;4998891;28;20062;-77
2022/05/22 07:33:08;;;;;;;0.95;0.52;;;17.70;72.00;;;;;;4998531;28;20026;-77
2022/05/22 07:35:39;;;;;;;0.70;0.40;;;17.80;71.90;;;;;;4998764;28;20059;-76
2022/05/22 07:38:05;;;;;;;0.68;0.50;;;17.90;71.80;;;;;;4996303;28;20043;-76
2022/05/22 07:40:31;;;;;;;0.40;0.40;;;18.10;72.40;;;;;;5070988;23;20106;-75
2022/05/22 07:42:57;;;;;;;0.40;0.40;;;18.20;71.70;;;;;;4995650;28;20122;-77
2022/05/22 07:45:24;;;;;;;1.30;0.60;;;18.30;71.60;;;;;;4995467;28;20055;-75
2022/05/22 07:47:52;;;;;;;0.50;0.50;;;18.40;71.60;;;;;;4971910;28;20043;-78
2022/05/22 07:50:18;;;;;;;1.00;0.52;;;18.60;71.40;;;;;;4968230;28;20047;-77
2022/05/22 07:52:45;;;;;;;0.80;0.50;;;18.80;71.10;;;;;;4997375;28;20062;-78
2022/05/22 07:55:14;;;;;;;0.85;0.40;;;19.00;70.90;;;;;;4997425;28;20070;-77
2022/05/22 07:57:47;;;;;;;0.30;0.30;;;19.10;70.60;;;;;;4994674;28;20039;-76
2022/05/22 08:00:18;;;;;;;0.43;0.35;;;19.30;70.40;;;;;;4990567;28;20114;-75
2022/05/22 08:02:44;;;;;;;;;;;19.40;70.30;;;;;;4959995;29;20040;-77
2022/05/22 08:05:12;;;;;;;0.95;0.40;;;19.60;70.30;;;;;;5026758;23;19907;-77
2022/05/22 08:07:38;;;;;;;0.40;0.40;;;19.60;70.30;;;;;;4973091;28;20047;-77
2022/05/22 08:10:07;;;;;;;0.30;0.20;;;19.70;70.40;;;;;;4974057;28;20111;-75
2022/05/22 08:12:38;;;;;;;0.57;0.30;;;19.80;70.10;;;;;;4964306;28;20041;-76
2022/05/22 08:15:05;;;;;;;0.73;0.45;;;20.20;69.90;;;;;;4979739;28;20043;-76
2022/05/22 08:17:35;;;;;;;0.30;0.30;;;20.10;69.60;;;;;;4971238;28;20122;-77
2022/05/22 08:20:04;;;;;;;1.65;0.30;;;20.30;69.50;;;;;;4976282;28;20051;-76
2022/05/22 08:22:30;;;;;;;0.40;0.30;;;20.20;69.50;;;;;;4958547;28;20074;-77
2022/05/22 08:24:56;;;;;;;2.40;0.47;;;20.40;69.60;;;;;;4973634;28;20103;-76
2022/05/22 08:27:21;;;;;;;0.40;0.20;;;20.50;69.50;;;;;;4966874;28;20047;-74
2022/05/22 08:29:47;;;;;;;0.35;0.30;;;20.60;69.30;;;;;;4973386;28;20043;-74
2022/05/22 08:32:13;;;;;;;0.20;0.20;;;20.80;69.10;;;;;;4965414;28;20032;-74
2022/05/22 08:34:39;;;;;;;0.65;0.30;;;21.00;68.90;;;;;;4967081;28;20040;-77
2022/05/22 08:37:04;;;;;;;0.20;0.20;;;21.00;68.60;;;;;;4968152;28;20051;-75
2022/05/22 08:39:31;;;;;;;0.60;0.30;;;21.10;68.60;;;;;;4967395;28;20035;-76
2022/05/22 08:41:58;;;;;;;1.10;0.20;;;21.20;68.60;;;;;;4967588;28;20032;-74
2022/05/22 08:44:30;;;;;;;0.47;0.20;;;21.30;68.40;;;;;;4966319;28;20043;-74
2022/05/22 08:47:01;;;;;;;0.50;0.30;;;21.50;68.20;;;;;;4974133;28;20023;-76
2022/05/22 08:49:53;;;;;;;0.63;0.32;;;21.60;68.00;;;;;;4971069;28;20031;-76
2022/05/22 08:52:42;;;;;;;0.20;0.20;;;21.60;67.70;;;;;;4944097;28;20043;-76
2022/05/22 08:55:15;;;;;;;0.50;0.30;;;21.70;67.90;;;;;;4980058;28;20050;-76
2022/05/22 09:00:37;;;;;;;0.30;0.30;;;22.00;67.50;;;;;;4955660;28;20055;-76
2022/05/22 09:03:24;;;;;;;0.28;0.28;;;22.20;67.30;;;;;;4939346;28;20032;-75
2022/05/22 09:05:55;;;;;;;0.52;0.30;;;22.20;67.20;;;;;;4967659;28;20039;-74
2022/05/22 09:08:29;;;;;;;0.57;0.30;;;22.20;67.20;;;;;;4978840;28;20043;-77
2022/05/22 09:11:05;;;;;;;0.93;0.30;;;22.30;67.10;;;;;;4973900;28;20057;-78
2022/05/22 09:14:09;;;;;;;0.50;0.20;;;22.40;67.00;;;;;;4974335;28;20480;-78
2022/05/22 09:16:43;;;;;;;0.30;0.22;;;22.60;66.50;;;;;;4992726;28;20097;-75
2022/05/22 09:19:12;;;;;;;0.22;0.20;;;22.70;66.20;;;;;;4975584;28;20109;-75
2022/05/22 09:22:04;;;;;;;1.17;0.30;;;22.80;66.10;;;;;;4992804;28;20130;-75
2022/05/22 09:25:00;;;;;;;0.65;0.38;;;22.80;65.90;;;;;;4977154;28;20039;-75
2022/05/22 09:27:50;;;;;;;1.38;0.45;;;22.90;65.80;;;;;;4975204;28;20039;-77
2022/05/22 09:30:40;;;;;;;0.30;0.30;;;23.10;65.60;;;;;;4978879;28;20039;-80
2022/05/22 09:33:27;;;;;;;0.90;0.30;;;23.20;65.60;;;;;;4978966;28;20053;-75
2022/05/22 09:36:08;;;;;;;0.55;0.30;;;23.00;65.60;;;;;;4992194;28;20393;-75
2022/05/22 09:39:07;;;;;;;0.30;0.20;;;23.00;65.60;;;;;;4981595;28;20050;-77
2022/05/22 09:42:04;;;;;;;0.30;0.30;;;23.10;65.60;;;;;;4988317;28;20050;-77
2022/05/22 09:44:54;;;;;;;0.20;0.20;;;23.30;65.20;;;;;;4991452;28;20039;-77
2022/05/22 09:47:46;;;;;;;0.40;0.30;;;23.30;64.90;;;;;;4983773;28;20073;-77
2022/05/22 09:50:28;;;;;;;0.40;0.30;;;23.10;64.80;;;;;;4984486;28;20077;-77
2022/05/22 09:53:04;;;;;;;0.43;0.30;;;23.10;65.30;;;;;;4984366;28;20042;-77
2022/05/22 09:55:51;;;;;;;1.20;0.55;;;23.00;65.30;;;;;;4978844;28;20485;-77
2022/05/22 09:58:34;;;;;;;0.52;0.28;;;22.90;65.50;;;;;;4983147;28;20031;-76
2022/05/22 10:01:12;;;;;;;0.20;0.20;;;22.80;65.60;;;;;;4981104;28;20035;-77
2022/05/22 10:04:14;;;;;;;0.60;0.40;;;23.10;65.40;;;;;;4980362;28;20037;-77
2022/05/22 10:06:53;;;;;;;0.40;0.40;;;23.10;65.00;;;;;;4979581;28;20470;-76
2022/05/22 10:09:41;;;;;;;0.55;0.30;;;23.30;64.70;;;;;;4985336;28;20027;-76
2022/05/22 10:12:37;;;;;;;0.30;0.30;;;23.50;64.10;;;;;;4984804;28;20041;-77
2022/05/22 10:15:35;;;;;;;0.25;0.22;;;23.60;63.90;;;;;;5001758;28;20051;-77
2022/05/22 10:18:13;;;;;;;0.30;0.30;;;23.60;63.90;;;;;;4981772;28;20047;-77
2022/05/22 10:21:07;;;;;;;0.68;0.40;;;23.50;63.90;;;;;;4985098;28;20066;-76
2022/05/22 10:23:55;;;;;;;0.75;0.30;;;23.40;63.90;;;;;;4982637;28;20043;-77
2022/05/22 10:26:56;;;;;;;0.47;0.40;;;23.50;64.00;;;;;;4985031;28;20125;-77
2022/05/22 10:29:41;;;;;;;0.95;0.50;;;23.60;63.40;;;;;;4978480;28;20051;-76
2022/05/22 10:32:16;;;;;;;0.55;0.32;;;23.40;63.40;;;;;;4995241;28;20051;-76
2022/05/22 10:35:01;;;;;;;0.80;0.40;;;23.30;63.60;;;;;;4980146;28;20106;-77
2022/05/22 10:37:35;;;;;;;1.17;0.57;;;23.30;63.40;;;;;;4981782;28;20046;-76
2022/05/22 10:40:06;;;;;;;1.73;0.50;;;23.20;63.50;;;;;;4984676;28;20055;-77
2022/05/22 10:42:45;;;;;;;0.75;0.40;;;23.30;63.40;;;;;;4987063;28;20058;-77
2022/05/22 10:45:21;;;;;;;0.30;0.25;;;23.40;63.00;;;;;;4991327;28;20042;-76
2022/05/22 10:47:47;;;;;;;0.65;0.40;;;23.60;62.50;;;;;;4991646;28;20027;-77
2022/05/22 10:50:18;;;;;;;0.88;0.43;;;23.60;62.40;;;;;;4987879;28;20118;-77
2022/05/22 10:52:44;;;;;;;0.38;0.38;;;23.70;62.30;;;;;;5005487;28;20038;-77
2022/05/22 10:55:32;;;;;;;1.70;0.70;;;23.60;62.00;;;;;;5002661;28;20042;-76
2022/05/22 10:58:02;;;;;;;2.53;0.85;;;23.60;61.90;;;;;;4982584;28;20034;-77
2022/05/22 11:00:29;;;;;;;1.25;0.65;;;23.40;62.10;;;;;;4984678;28;20098;-76
2022/05/22 11:02:55;;;;;;;0.65;0.60;;;23.30;62.40;;;;;;4985780;28;20058;-76
2022/05/22 11:05:26;;;;;;;0.68;0.50;;;23.10;62.50;;;;;;4984585;28;20035;-76
2022/05/22 11:07:54;;;;;;;0.88;0.52;;;23.30;62.30;;;;;;5008809;28;20038;-76
2022/05/22 11:10:33;;;;;;;0.32;0.32;;;23.40;61.90;;;;;;5009171;28;20162;-76
2022/05/22 11:13:04;;;;;;;0.45;0.40;;;23.50;61.70;;;;;;4992811;28;20043;-76
2022/05/22 11:15:33;;;;;;;0.75;0.38;;;23.40;62.20;;;;;;4991592;28;20034;-76
2022/05/22 11:18:11;;;;;;;0.35;0.22;;;23.40;61.70;;;;;;4991052;28;20051;-76
2022/05/22 11:20:59;;;;;;;0.40;0.40;;;23.30;61.80;;;;;;4991236;28;20054;-76
2022/05/22 11:23:46;;;;;;;0.28;0.28;;;23.30;61.60;;;;;;5007769;28;20081;-76
2022/05/22 11:26:34;;;;;;;0.63;0.40;;;23.40;61.40;;;;;;4994442;28;20046;-76
2022/05/22 11:29:12;;;;;;;0.85;0.43;;;23.50;61.30;;;;;;4992605;28;20064;-76
2022/05/22 11:32:02;;;;;;;0.40;0.40;;;23.50;61.50;;;;;;4994562;28;20046;-77
2022/05/22 11:34:58;;;;;;;0.40;0.40;;;23.60;61.00;;;;;;4996725;28;20059;-76
2022/05/22 11:37:51;;;;;;;0.95;0.40;;;23.50;61.00;;;;;;4989268;28;20050;-77
2022/05/22 11:40:50;;;;;;;2.22;0.60;;;23.50;61.00;;;;;;4989478;28;20050;-76
2022/05/22 11:43:53;;;;;;;0.60;0.47;;;23.50;60.80;;;;;;4990591;28;20070;-76
2022/05/22 11:46:53;;;;;;;0.68;0.47;;;23.50;60.70;;;;;;4992514;28;20122;-76
2022/05/22 11:49:43;;;;;;;0.60;0.30;;;23.60;61.00;;;;;;4994976;28;20051;-77
2022/05/22 11:53:00;;;;;;;0.93;0.65;;;23.60;60.50;;;;;;4993186;28;20049;-76
2022/05/22 11:55:53;;;;;;;0.47;0.40;;;23.70;60.10;;;;;;5003701;28;20032;-77
2022/05/22 11:58:36;;;;;;;0.50;0.50;;;23.50;60.30;;;;;;4993624;28;20106;-76
2022/05/22 12:01:15;;;;;;;0.50;0.50;;;23.50;60.30;;;;;;4993399;28;20038;-76
2022/05/22 12:04:19;;;;;;;1.10;0.43;;;23.40;60.30;;;;;;4992679;28;20047;-76
2022/05/22 12:07:18;;;;;;;0.32;0.30;;;23.40;60.30;;;;;;4992386;28;20043;-75
2022/05/22 12:09:59;;;;;;;0.95;0.60;;;23.50;60.10;;;;;;4993261;28;20046;-75
2022/05/22 12:12:45;;;;;;;1.23;0.65;;;23.50;60.00;;;;;;4993822;28;20114;-76
2022/05/22 12:15:45;;;;;;;0.80;0.60;;;23.40;60.00;;;;;;4992561;28;20059;-76
2022/05/22 12:18:45;;;;;;;0.88;0.60;;;23.40;60.00;;;;;;4994623;28;20139;-76
2022/05/22 12:21:35;;;;;;;0.60;0.60;;;23.30;60.00;;;;;;4993636;28;20078;-76
2022/05/22 12:24:13;;;;;;;0.32;0.32;;;23.40;60.00;;;;;;5009693;28;20045;-76
2022/05/22 12:26:42;;;;;;;0.75;0.50;;;23.30;59.90;;;;;;5013537;28;20038;-76
2022/05/22 12:29:12;;;;;;;1.30;0.75;;;23.40;59.80;;;;;;5012884;28;20054;-76
2022/05/22 12:31:42;;;;;;;1.73;0.73;;;23.50;59.60;;;;;;4996876;28;20038;-77
2022/05/22 12:34:15;;;;;;;0.40;0.40;;;23.40;59.40;;;;;;5011630;28;20049;-76
2022/05/22 12:36:46;;;;;;;0.50;0.38;;;23.30;59.50;;;;;;5011841;28;20046;-76
2022/05/22 12:39:12;;;;;;;;;;;23.20;59.80;;;;;;5011708;28;20046;-76
2022/05/22 12:41:52;;;;;;;1.38;0.50;;;23.20;59.90;;;;;;4994687;28;19913;-76
2022/05/22 12:44:19;;;;;;;0.30;0.30;;;23.20;59.90;;;;;;4995331;28;20042;-76
2022/05/22 12:46:46;;;;;;;1.58;0.50;;;23.20;59.90;;;;;;4991409;28;20057;-75
2022/05/22 12:49:27;;;;;;;1.40;0.52;;;23.20;59.70;;;;;;4991894;28;20049;-76
2022/05/22 12:52:06;;;;;;;0.55;0.43;;;23.20;59.50;;;;;;4994358;28;20073;-76
2022/05/22 12:54:36;;;;;;;0.85;0.38;;;23.30;59.50;;;;;;4993275;28;20062;-76
2022/05/22 12:57:15;;;;;;;1.27;0.50;;;23.30;59.30;;;;;;4994472;28;20035;-76
2022/05/22 12:59:56;;;;;;;1.20;0.80;;;23.30;59.40;;;;;;4991482;28;20489;-76
2022/05/22 13:02:36;;;;;;;1.77;0.70;;;23.20;59.30;;;;;;4991781;28;20051;-76
2022/05/22 13:05:11;;;;;;;2.22;0.65;;;23.20;59.30;;;;;;4991534;28;20054;-76
2022/05/22 13:07:38;;;;;;;1.20;0.40;;;23.20;59.30;;;;;;4990397;28;20054;-76
2022/05/22 13:10:19;;;;;;;1.40;0.75;;;23.10;59.40;;;;;;4990759;28;20065;-76
2022/05/22 13:12:52;;;;;;;1.15;0.75;;;23.10;59.20;;;;;;4990618;28;20050;-76
2022/05/22 13:15:24;;;;;;;0.75;0.60;;;23.00;59.00;;;;;;5009101;28;20054;-76
2022/05/22 13:18:05;;;;;;;1.00;0.50;;;23.00;59.10;;;;;;4992173;28;20046;-76
2022/05/22 13:20:46;;;;;;;0.70;0.70;;;23.00;59.30;;;;;;4989392;28;20108;-76
2022/05/22 13:23:28;;;;;;;0.93;0.55;;;22.90;59.10;;;;;;4989618;28;20067;-76